Time;durP1;ratioP1;P1;durP2;ratioP2;P2;SDS_P1;SDS_P2;PMS_P1;PMS_P2;Temp;Humidity;BMP_temperature;BMP_pressure;BME280_temperature;BME280_humidity;BME280_pressure;Samples;Min_cycle;Max_cycle;Signal;HPM_P1;HPM_P2
2022/10/27 00:00:52;;;;;;;4.70;3.93;;;;;;;10.17;100.00;97238.78;5072838;27;102343;-63
2022/10/27 00:03:20;;;;;;;5.27;4.73;;;;;;;10.24;100.00;97244.03;5075708;27;102560;-63
2022/10/27 00:05:48;;;;;;;8.23;5.10;;;;;;;10.26;100.00;97241.94;5072492;27;102415;-63
2022/10/27 00:08:17;;;;;;;5.73;4.30;;;;;;;10.28;100.00;97251.31;5072002;27;102577;-63
2022/10/27 00:10:44;;;;;;;5.27;4.73;;;;;;;10.19;100.00;97243.88;5072511;27;101832;-63
2022/10/27 00:13:13;;;;;;;6.47;4.30;;;;;;;10.24;100.00;97244.03;5072588;27;102275;-63
2022/10/27 00:15:40;;;;;;;8.17;4.70;;;;;;;10.18;100.00;97242.25;5071716;27;103176;-63
2022/10/27 00:18:11;;;;;;;5.37;4.30;;;;;;;10.08;100.00;97245.44;5072618;27;101967;-63
2022/10/27 00:20:40;;;;;;;6.43;5.17;;;;;;;10.01;100.00;97241.22;5070963;27;105979;-63
2022/10/27 00:23:07;;;;;;;5.53;4.43;;;;;;;9.93;100.00;97241.56;5069987;27;104335;-63
2022/10/27 00:25:34;;;;;;;5.37;4.40;;;;;;;9.88;100.00;97250.19;5075880;27;101662;-63
2022/10/27 00:28:01;;;;;;;5.33;4.53;;;;;;;9.88;100.00;97249.41;5070211;27;103734;-63
2022/10/27 00:30:28;;;;;;;4.43;4.00;;;;;;;9.89;100.00;97256.31;5070894;27;101936;-63
2022/10/27 00:32:56;;;;;;;4.87;4.20;;;;;;;9.95;100.00;97247.44;5072250;27;101674;-63
2022/10/27 00:35:23;;;;;;;4.47;4.07;;;;;;;9.95;100.00;97250.09;5070292;27;103924;-63
2022/10/27 00:37:52;;;;;;;4.60;3.87;;;;;;;9.90;100.00;97248.13;5070536;27;101973;-63
2022/10/27 00:40:19;;;;;;;5.00;4.50;;;;;;;9.94;100.00;97248.50;5070747;27;104733;-63
2022/10/27 00:42:46;;;;;;;7.27;4.93;;;;;;;9.90;100.00;97252.63;5069980;27;105072;-63
2022/10/27 00:45:13;;;;;;;8.17;6.20;;;;;;;9.87;100.00;97258.41;5074236;27;101882;-63
2022/10/27 00:47:40;;;;;;;9.03;5.80;;;;;;;9.90;100.00;97265.91;5069614;27;105067;-63
2022/10/27 00:50:10;;;;;;;7.47;5.93;;;;;;;9.88;100.00;97254.72;5070130;27;101867;-63
2022/10/27 00:52:43;;;;;;;7.17;5.40;;;;;;;9.90;100.00;97257.94;5070466;27;103735;-63
2022/10/27 00:55:16;;;;;;;5.30;4.70;;;;;;;9.82;100.00;97258.25;5069751;27;105328;-63
2022/10/27 00:57:47;;;;;;;6.93;3.77;;;;;;;9.70;100.00;97260.84;5072004;27;101701;-63
2022/10/27 01:00:15;;;;;;;5.33;4.53;;;;;;;9.68;100.00;97262.09;5070422;27;103584;-63
2022/10/27 01:02:41;;;;;;;7.30;4.30;;;;;;;9.66;100.00;97264.97;5069883;27;105123;-63
2022/10/27 01:05:15;;;;;;;4.37;3.90;;;;;;;9.69;100.00;97261.06;5070074;27;101897;-63
2022/10/27 01:07:43;;;;;;;6.00;3.80;;;;;;;9.63;100.00;97262.78;5073110;27;105224;-63
2022/10/27 01:10:13;;;;;;;5.00;4.37;;;;;;;9.45;100.00;97260.16;5070400;27;101969;-63
2022/10/27 01:12:41;;;;;;;5.20;3.97;;;;;;;9.35;100.00;97259.84;5071618;27;102893;-63
2022/10/27 01:15:09;;;;;;;5.20;4.17;;;;;;;9.43;100.00;97261.41;5069438;27;104015;-63
2022/10/27 01:17:47;;;;;;;5.17;4.20;;;;;;;9.49;100.00;97257.88;5069899;27;101960;-63
2022/10/27 01:20:41;;;;;;;4.50;4.07;;;;;;;9.52;100.00;97257.41;5069989;27;105035;-63
2022/10/27 01:23:14;;;;;;;7.10;4.40;;;;;;;9.58;100.00;97264.47;5069338;27;104023;-63
2022/10/27 01:26:28;;;;;;;4.80;4.10;;;;;;;9.60;100.00;97262.44;5070119;27;102142;-63
2022/10/27 01:29:35;;;;;;;7.23;4.60;;;;;;;9.54;100.00;97263.31;5069729;27;105169;-62
2022/10/27 01:32:13;;;;;;;7.57;5.70;;;;;;;9.52;100.00;97254.75;5068675;27;105723;-63
2022/10/27 01:34:46;;;;;;;5.90;4.90;;;;;;;9.40;100.00;97254.69;5071540;27;102473;-63
2022/10/27 01:37:19;;;;;;;4.70;4.20;;;;;;;9.42;100.00;97259.75;5069240;27;103781;-63
2022/10/27 01:39:52;;;;;;;9.07;3.90;;;;;;;9.43;100.00;97261.41;5069688;27;101980;-63
2022/10/27 01:42:28;;;;;;;4.20;3.80;;;;;;;9.41;100.00;97258.16;5071465;27;101662;-63
2022/10/27 01:44:59;;;;;;;5.73;4.27;;;;;;;9.45;100.00;97262.81;5069317;27;104142;-63
2022/10/27 01:47:31;;;;;;;4.93;3.73;;;;;;;9.41;100.00;97255.50;5068983;27;101931;-63
2022/10/27 01:50:01;;;;;;;5.53;3.60;;;;;;;9.26;100.00;97255.88;5069726;27;105693;-63
2022/10/27 01:52:42;;;;;;;5.23;3.77;;;;;;;9.33;100.00;97264.56;5068699;27;105800;-63
2022/10/27 01:55:14;;;;;;;4.30;3.50;;;;;;;9.32;100.00;97254.19;5072892;27;101890;-63
2022/10/27 01:57:58;;;;;;;5.10;4.60;;;;;;;9.31;100.00;97258.66;5068933;27;103810;-63
2022/10/27 02:00:26;;;;;;;4.27;3.87;;;;;;;9.34;100.00;97262.72;5069574;27;102333;-63
2022/10/27 02:03:02;;;;;;;6.57;3.97;;;;;;;9.33;100.00;97261.91;5068969;27;105198;-63
2022/10/27 02:05:37;;;;;;;4.37;3.40;;;;;;;9.28;100.00;97256.44;5068532;27;105421;-63
2022/10/27 02:08:10;;;;;;;3.77;3.27;;;;;;;9.15;100.00;97261.06;5069407;27;101764;-63
2022/10/27 02:10:43;;;;;;;4.13;3.63;;;;;;;9.12;100.00;97259.72;5069414;27;104999;-63
2022/10/27 02:13:11;;;;;;;3.97;3.57;;;;;;;9.15;100.00;97269.03;5068848;27;103795;-63
2022/10/27 02:15:40;;;;;;;4.80;3.83;;;;;;;9.20;100.00;97271.84;5069082;27;102002;-63
2022/10/27 02:18:15;;;;;;;4.20;3.50;;;;;;;9.13;100.00;97266.63;5072223;27;104822;-63
2022/10/27 02:20:48;;;;;;;5.83;4.00;;;;;;;9.03;100.00;97266.31;5069044;27;101785;-63
2022/10/27 02:23:17;;;;;;;3.37;3.07;;;;;;;8.92;100.00;97259.06;5069011;27;104874;-63
2022/10/27 02:25:52;;;;;;;4.10;3.70;;;;;;;8.95;100.00;97271.09;5068473;27;105492;-63
2022/10/27 02:28:23;;;;;;;3.93;3.60;;;;;;;8.90;100.00;97260.31;5068946;27;102054;-62
2022/10/27 02:30:52;;;;;;;4.53;3.80;;;;;;;8.79;100.00;97277.75;5069185;27;105688;-63
2022/10/27 02:33:21;;;;;;;3.37;3.07;;;;;;;8.75;100.00;97267.81;5068594;27;105190;-63
2022/10/27 02:35:48;;;;;;;6.43;5.83;;;;;;;8.78;100.00;97267.38;5068834;27;102005;-63
2022/10/27 02:38:17;;;;;;;3.87;3.40;;;;;;;8.75;100.00;97268.63;5068869;27;104009;-63
2022/10/27 02:40:44;;;;;;;4.30;3.70;;;;;;;8.77;100.00;97268.41;5071965;27;105373;-63
2022/10/27 02:43:11;;;;;;;4.60;4.20;;;;;;;8.74;100.00;97272.31;5069033;27;103624;-63
2022/10/27 02:45:38;;;;;;;5.47;4.37;;;;;;;8.74;100.00;97276.78;5068173;27;104257;-63
2022/10/27 02:48:06;;;;;;;9.30;5.20;;;;;;;8.80;100.00;97271.44;5068374;27;101881;-63
2022/10/27 02:50:36;;;;;;;4.87;4.47;;;;;;;8.80;100.00;97268.78;5068788;27;103746;-62
2022/10/27 02:53:02;;;;;;;4.70;4.00;;;;;;;8.78;100.00;97273.47;5068047;27;105675;-63
2022/10/27 02:55:30;;;;;;;4.60;4.20;;;;;;;8.58;100.00;97272.03;5068998;27;102076;-63
2022/10/27 02:57:57;;;;;;;6.00;4.67;;;;;;;8.64;100.00;97265.84;5068666;27;105631;-63
2022/10/27 03:00:24;;;;;;;3.60;3.23;;;;;;;8.62;100.00;97273.22;5071309;27;105716;-63
2022/10/27 03:02:52;;;;;;;7.83;3.67;;;;;;;8.39;100.00;97267.69;5068827;27;105004;-63
2022/10/27 03:05:19;;;;;;;5.00;3.80;;;;;;;8.33;100.00;97264.06;5068035;27;105719;-63
2022/10/27 03:07:47;;;;;;;3.60;3.30;;;;;;;8.36;100.00;97271.59;5068597;27;101929;-63
2022/10/27 03:10:14;;;;;;;4.50;3.77;;;;;;;8.35;100.00;97261.19;5068686;27;103615;-63
2022/10/27 03:12:42;;;;;;;4.10;3.70;;;;;;;8.29;100.00;97265.50;5067779;27;103787;-63
2022/10/27 03:15:10;;;;;;;3.93;3.53;;;;;;;8.41;100.00;97265.63;5070446;27;102104;-63
2022/10/27 03:17:44;;;;;;;5.87;4.03;;;;;;;8.45;100.00;97258.88;5073597;27;102424;-63
2022/10/27 03:20:12;;;;;;;4.43;4.00;;;;;;;8.37;100.00;97259.97;5071283;27;105426;-63
2022/10/27 03:22:39;;;;;;;4.53;4.07;;;;;;;8.36;100.00;97263.66;5076890;27;101935;-63
2022/10/27 03:25:13;;;;;;;3.63;3.33;;;;;;;8.36;100.00;97263.66;5071159;27;103997;-63
2022/10/27 03:27:41;;;;;;;4.73;3.87;;;;;;;8.23;100.00;97257.63;5071815;27;101751;-63
2022/10/27 03:30:09;;;;;;;4.17;3.40;;;;;;;8.22;100.00;97261.28;5071910;27;104930;-63
2022/10/27 03:32:38;;;;;;;7.03;3.67;;;;;;;8.24;100.00;97264.53;5071220;27;105462;-63
2022/10/27 03:35:06;;;;;;;4.00;3.70;;;;;;;8.31;100.00;97270.59;5071629;27;101802;-63
2022/10/27 03:37:33;;;;;;;4.30;3.90;;;;;;;8.26;100.00;97265.94;5071764;27;105498;-63
2022/10/27 03:40:01;;;;;;;4.20;3.50;;;;;;;8.21;100.00;97265.78;5070949;27;105925;-63
2022/10/27 03:42:29;;;;;;;5.20;3.90;;;;;;;8.20;100.00;97268.63;5071681;27;101899;-63
2022/10/27 03:44:56;;;;;;;4.47;3.70;;;;;;;8.19;100.00;97264.34;5074582;27;104728;-63
2022/10/27 03:47:23;;;;;;;5.73;4.13;;;;;;;8.19;100.00;97262.47;5071207;27;102016;-63
2022/10/27 03:49:51;;;;;;;5.33;4.30;;;;;;;8.17;100.00;97261.06;5071547;27;105250;-63
2022/10/27 03:52:20;;;;;;;4.23;3.63;;;;;;;8.19;100.00;97261.69;5072242;27;101972;-63
2022/10/27 03:54:48;;;;;;;4.63;3.63;;;;;;;8.14;100.00;97264.16;5071410;27;101716;-63
2022/10/27 03:57:15;;;;;;;4.83;3.97;;;;;;;8.17;100.00;97255.78;5071500;27;103773;-63
2022/10/27 03:59:45;;;;;;;4.13;3.83;;;;;;;8.06;100.00;97262.56;5070734;27;105587;-63
2022/10/27 04:02:12;;;;;;;5.13;4.33;;;;;;;8.02;100.00;97264.03;5071352;27;101945;-63
2022/10/27 04:04:41;;;;;;;4.37;3.97;;;;;;;8.02;100.00;97266.66;5071458;27;105222;-63
2022/10/27 04:07:08;;;;;;;5.30;4.17;;;;;;;7.94;100.00;97264.28;5073994;27;103717;-63
2022/10/27 04:09:35;;;;;;;4.13;3.80;;;;;;;7.93;100.00;97264.50;5071143;27;105256;-63
2022/10/27 04:12:04;;;;;;;4.43;4.00;;;;;;;7.98;100.00;97264.66;5070553;27;103765;-63
2022/10/27 04:14:32;;;;;;;6.00;4.00;;;;;;;7.96;100.00;97261.44;5071346;27;102234;-63
2022/10/27 04:17:00;;;;;;;4.47;4.03;;;;;;;7.90;100.00;97268.38;5071079;27;103674;-63
2022/10/27 04:19:27;;;;;;;4.47;4.07;;;;;;;7.91;100.00;97279.78;5071395;27;102703;-63
2022/10/27 04:21:54;;;;;;;7.47;4.47;;;;;;;7.96;100.00;97282.63;5070826;27;101914;-63
2022/10/27 04:24:21;;;;;;;4.30;3.90;;;;;;;7.92;100.00;97282.19;5070877;27;104484;-63
2022/10/27 04:26:48;;;;;;;4.53;4.03;;;;;;;7.97;100.00;97271.00;5069259;27;105563;-63
2022/10/27 04:29:15;;;;;;;4.43;4.03;;;;;;;7.90;100.00;97272.88;5073888;27;101924;-63
2022/10/27 04:31:42;;;;;;;7.23;4.00;;;;;;;7.97;100.00;97279.72;5069647;27;104206;-63
2022/10/27 04:34:10;;;;;;;5.00;3.97;;;;;;;7.96;100.00;97282.63;5070675;27;101888;-63
2022/10/27 04:36:38;;;;;;;7.77;3.83;;;;;;;7.98;100.00;97272.63;5070840;27;105513;-63
2022/10/27 04:39:06;;;;;;;6.20;4.33;;;;;;;7.99;100.00;97282.19;5070382;27;105531;-63
2022/10/27 04:41:53;;;;;;;5.23;4.73;;;;;;;7.97;100.00;97281.59;5070984;27;101907;-63
2022/10/27 04:44:22;;;;;;;4.80;4.40;;;;;;;7.85;100.00;97292.03;5071012;27;105097;-63
2022/10/27 04:46:49;;;;;;;6.17;4.30;;;;;;;7.93;100.00;97288.31;5069909;27;105422;-63
2022/10/27 04:49:18;;;;;;;4.60;4.00;;;;;;;7.91;100.00;97287.72;5070710;27;102020;-63
2022/10/27 04:51:49;;;;;;;4.30;3.90;;;;;;;7.83;100.00;97286.13;5053164;27;103938;-63
2022/10/27 04:54:19;;;;;;;6.47;4.20;;;;;;;7.88;100.00;97299.56;5067582;27;101814;-63
2022/10/27 04:56:46;;;;;;;5.00;4.30;;;;;;;7.92;100.00;97292.00;5050539;27;102699;-63
2022/10/27 04:59:13;;;;;;;4.33;3.93;;;;;;;7.89;100.00;97293.25;5049765;27;103783;-63
2022/10/27 05:01:50;;;;;;;4.27;3.80;;;;;;;7.88;100.00;97294.25;5050111;27;102065;-63
2022/10/27 05:04:19;;;;;;;4.07;3.63;;;;;;;7.85;100.00;97304.47;5050365;27;103969;-63
2022/10/27 05:06:48;;;;;;;4.17;3.87;;;;;;;7.78;100.00;97299.19;5049526;27;105713;-63
2022/10/27 05:09:15;;;;;;;4.07;3.73;;;;;;;7.76;100.00;97303.06;5049968;27;101853;-63
2022/10/27 05:11:49;;;;;;;5.00;3.77;;;;;;;7.79;100.00;97294.72;5052800;27;103973;-63
2022/10/27 05:14:16;;;;;;;3.87;3.57;;;;;;;7.74;100.00;97299.84;5067017;27;101983;-63
2022/10/27 05:16:44;;;;;;;3.93;3.63;;;;;;;7.73;100.00;97303.47;5067132;27;105176;-63
2022/10/27 05:19:11;;;;;;;4.30;4.00;;;;;;;7.71;100.00;97300.25;5049321;27;103716;-63
2022/10/27 05:21:42;;;;;;;4.10;3.70;;;;;;;7.65;100.00;97301.09;5069615;27;102122;-63
2022/10/27 05:24:31;;;;;;;6.20;4.57;;;;;;;7.66;100.00;97303.53;5070330;27;105453;-63
2022/10/27 05:26:58;;;;;;;4.87;3.70;;;;;;;7.65;100.00;97295.78;5069731;27;104004;-63
2022/10/27 05:29:25;;;;;;;4.27;3.50;;;;;;;7.54;100.00;97301.75;5070047;27;101906;-63
2022/10/27 05:32:22;;;;;;;4.20;3.60;;;;;;;7.62;100.00;97312.06;5070295;27;105310;-62
2022/10/27 05:34:51;;;;;;;5.20;4.17;;;;;;;7.65;100.00;97301.91;5074305;27;102634;-63
2022/10/27 05:37:21;;;;;;;4.83;4.37;;;;;;;7.60;100.00;97301.72;5068755;27;104851;-63
2022/10/27 05:39:50;;;;;;;4.00;3.70;;;;;;;7.55;100.00;97306.00;5069295;27;104261;-63
2022/10/27 05:42:19;;;;;;;4.20;3.80;;;;;;;7.57;100.00;97309.25;5070036;27;101853;-63
2022/10/27 05:44:47;;;;;;;4.47;4.07;;;;;;;7.49;100.00;97318.25;5069767;27;103731;-63
2022/10/27 05:47:13;;;;;;;3.93;3.33;;;;;;;7.53;100.00;97310.72;5068843;27;103951;-63
2022/10/27 05:49:40;;;;;;;5.77;4.00;;;;;;;7.52;100.00;97307.22;5069460;27;101835;-63
2022/10/27 05:52:09;;;;;;;4.20;3.80;;;;;;;7.52;100.00;97309.88;5071014;27;102415;-63
2022/10/27 05:54:39;;;;;;;5.27;4.27;;;;;;;7.55;100.00;97306.81;5068356;27;105381;-63
2022/10/27 05:57:08;;;;;;;6.17;5.20;;;;;;;7.45;100.00;97321.50;5072333;27;102134;-63
2022/10/27 05:59:35;;;;;;;4.80;3.50;;;;;;;7.40;100.00;97308.91;5067951;27;105491;-63
2022/10/27 06:02:03;;;;;;;4.10;3.60;;;;;;;7.37;100.00;97311.16;5068239;27;101977;-62
2022/10/27 06:04:29;;;;;;;5.30;3.90;;;;;;;7.39;100.00;97317.03;5068360;27;103732;-63
2022/10/27 06:06:57;;;;;;;5.37;3.67;;;;;;;7.30;100.00;97320.97;5067449;27;103928;-63
2022/10/27 06:09:24;;;;;;;4.00;3.70;;;;;;;7.32;100.00;97316.25;5068987;27;102027;-62
2022/10/27 06:12:20;;;;;;;3.83;3.53;;;;;;;7.39;100.00;97322.34;5061442;27;105206;-63
2022/10/27 06:14:48;;;;;;;4.67;3.80;;;;;;;7.44;100.00;97325.19;5004656;28;103597;-65
2022/10/27 06:17:16;;;;;;;3.83;3.43;;;;;;;7.46;100.00;97318.66;4989535;28;102004;-64
2022/10/27 06:19:43;;;;;;;4.33;3.57;;;;;;;7.47;100.00;97327.41;4992682;28;105754;-65
2022/10/27 06:22:12;;;;;;;6.00;4.20;;;;;;;7.48;100.00;97316.59;4990763;28;101976;-64
2022/10/27 06:28:07;;;;;;;5.57;4.20;;;;;;;7.74;100.00;97323.66;4989165;28;105261;-64
2022/10/27 06:30:34;;;;;;;4.70;4.30;;;;;;;7.81;100.00;97316.50;4990056;28;102316;-63
2022/10/27 06:33:34;;;;;;;5.30;4.20;;;;;;;7.92;100.00;97323.78;4990676;28;104337;-63
2022/10/27 06:36:02;;;;;;;5.03;4.53;;;;;;;7.94;100.00;97324.38;4990336;28;105864;-63
2022/10/27 06:38:30;;;;;;;5.40;4.90;;;;;;;8.06;100.00;97326.16;4990371;28;102358;-63
2022/10/27 06:41:25;;;;;;;7.00;5.00;;;;;;;8.16;100.00;97336.28;4990697;28;105081;-63
2022/10/27 06:43:57;;;;;;;6.83;5.13;;;;;;;8.27;100.00;97335.66;4993332;28;105414;-63
2022/10/27 06:46:24;;;;;;;9.67;5.33;;;;;;;8.43;100.00;97335.13;4989678;28;103778;-62
2022/10/27 06:48:51;;;;;;;10.10;5.93;;;;;;;8.54;100.00;97329.97;4986533;28;104384;-63
2022/10/27 06:51:20;;;;;;;7.27;5.77;;;;;;;8.70;100.00;97344.53;5004295;27;101996;-62
2022/10/27 06:53:48;;;;;;;7.43;5.73;;;;;;;8.81;100.00;97343.84;5071549;27;105780;-64
2022/10/27 06:56:19;;;;;;;10.33;6.03;;;;;;;9.06;100.00;97337.50;5071920;27;106408;-64
2022/10/27 06:58:47;;;;;;;14.30;10.10;;;;;;;9.22;100.00;97344.13;5051688;27;102205;-64
2022/10/27 07:04:39;;;;;;;12.43;10.80;;;;;;;9.56;100.00;97351.53;5050545;27;105580;-64
2022/10/27 07:07:06;;;;;;;13.00;9.77;;;;;;;9.69;100.00;97356.69;5063266;27;101781;-65
2022/10/27 07:09:33;;;;;;;11.10;8.17;;;;;;;9.75;100.00;97353.16;5071786;27;103866;-64
2022/10/27 07:12:29;;;;;;;11.63;8.00;;;;;;;9.99;100.00;97352.25;5072040;27;103151;-63
2022/10/27 07:14:57;;;;;;;9.17;7.40;;;;;;;9.99;100.00;97360.22;5072814;27;105199;-63
2022/10/27 07:17:24;;;;;;;9.47;6.70;;;;;;;10.04;100.00;97365.72;5071636;27;105900;-63
2022/10/27 07:19:53;;;;;;;8.43;6.60;;;;;;;10.18;100.00;97360.00;5071695;27;102046;-63
2022/10/27 07:22:27;;;;;;;7.67;6.43;;;;;;;10.36;100.00;97372.47;5071918;27;103950;-63
2022/10/27 07:25:02;;;;;;;12.27;6.57;;;;;;;10.53;100.00;97370.81;5071577;27;104224;-63
2022/10/27 07:27:30;;;;;;;9.27;6.00;;;;;;;10.62;100.00;97364.94;5075710;27;102039;-63
2022/10/27 07:29:56;;;;;;;7.53;6.13;;;;;;;10.79;100.00;97367.78;5071250;27;105144;-64
2022/10/27 07:32:25;;;;;;;8.50;6.70;;;;;;;10.90;100.00;97372.31;5072125;27;102013;-64
2022/10/27 07:34:54;;;;;;;8.20;5.90;;;;;;;11.00;100.00;97367.22;5071946;27;103874;-65
2022/10/27 07:37:22;;;;;;;7.83;6.70;;;;;;;11.26;100.00;97367.59;5071121;27;105632;-67
2022/10/27 07:39:49;;;;;;;8.53;7.07;;;;;;;11.31;100.00;97365.06;5071415;27;103028;-61
2022/10/27 07:42:23;;;;;;;8.63;6.77;;;;;;;11.46;100.00;97361.94;5076842;27;103734;-63
2022/10/27 07:44:50;;;;;;;6.50;5.70;;;;;;;11.64;100.00;97375.16;5052618;27;105226;-62
2022/10/27 07:47:17;;;;;;;6.37;5.60;;;;;;;11.79;100.00;97370.16;5062357;27;101851;-64
2022/10/27 07:49:45;;;;;;;6.13;5.00;;;;;;;11.92;100.00;97380.56;5063539;27;103841;-63
2022/10/27 07:52:15;;;;;;;7.37;5.07;;;;;;;12.15;100.00;97378.66;5056622;27;102103;-63
2022/10/27 07:55:12;;;;;;;8.23;4.50;;;;;;;12.45;100.00;97378.47;5073310;27;102587;-63
2022/10/27 07:57:39;;;;;;;7.20;4.43;;;;;;;12.71;100.00;97384.03;5070943;27;103956;-62
2022/10/27 08:00:08;;;;;;;5.83;4.67;;;;;;;12.83;100.00;97373.28;5054608;27;102514;-63
2022/10/27 08:03:18;;;;;;;5.33;4.43;;;;;;;13.01;100.00;97379.25;5049471;27;102162;-64
2022/10/27 08:05:45;;;;;;;6.00;3.87;;;;;;;13.18;100.00;97374.75;5067266;27;105284;-63
2022/10/27 08:08:15;;;;;;;7.10;4.63;;;;;;;13.43;100.00;97367.13;5052238;27;101947;-63
2022/10/27 08:10:44;;;;;;;6.10;4.80;;;;;;;13.52;100.00;97362.97;5068738;27;105487;-64
2022/10/27 08:13:12;;;;;;;5.27;4.23;;;;;;;13.76;100.00;97366.25;5074113;27;105602;-65
2022/10/27 08:15:41;;;;;;;3.57;3.10;;;;;;;13.64;100.00;97362.88;5071216;27;105587;-64
2022/10/27 08:18:09;;;;;;;5.40;3.97;;;;;;;13.77;100.00;97362.53;5070542;27;105362;-64
2022/10/27 08:20:39;;;;;;;4.20;2.97;;;;;;;13.77;100.00;97365.19;5070774;27;101886;-64
2022/10/27 08:23:32;;;;;;;3.47;2.43;;;;;;;13.86;100.00;97361.88;5070963;27;106672;-64
2022/10/27 08:26:00;;;;;;;4.83;2.80;;;;;;;14.20;100.00;97359.91;5070400;27;105518;-64
2022/10/27 08:28:26;;;;;;;4.00;2.70;;;;;;;14.30;100.00;97363.53;5070369;27;101879;-64
2022/10/27 08:30:54;;;;;;;4.00;3.00;;;;;;;14.40;100.00;97363.63;5070855;27;106072;-64
2022/10/27 08:33:22;;;;;;;5.13;2.70;;;;;;;14.43;100.00;97359.66;5070252;27;105391;-66
2022/10/27 08:35:50;;;;;;;5.23;3.23;;;;;;;14.57;100.00;97363.56;5074224;27;102169;-64
2022/10/27 08:38:18;;;;;;;4.10;3.13;;;;;;;14.60;100.00;97353.16;5066791;27;104129;-63
2022/10/27 08:40:58;;;;;;;4.67;3.00;;;;;;;14.74;100.00;97353.56;5065934;27;103067;-63
2022/10/27 08:43:58;;;;;;;4.40;3.23;;;;;;;14.62;100.00;97359.09;5072314;27;102354;-63
2022/10/27 08:46:29;;;;;;;3.90;2.70;;;;;;;14.49;100.00;97366.69;5070758;27;103279;-64
2022/10/27 08:49:02;;;;;;;3.00;2.60;;;;;;;14.45;100.00;97365.56;5070798;27;102421;-64
2022/10/27 08:51:52;;;;;;;4.37;2.87;;;;;;;14.40;100.00;97368.19;5070823;27;103001;-65
2022/10/27 08:54:39;;;;;;;4.13;2.50;;;;;;;14.35;100.00;97365.47;5071649;27;102572;-65
2022/10/27 08:57:13;;;;;;;7.23;2.60;;;;;;;14.50;100.00;97368.31;5070809;27;101923;-65
2022/10/27 08:59:40;;;;;;;5.23;2.60;;;;;;;14.61;100.00;97364.69;5065888;27;106358;-64
2022/10/27 09:02:25;;;;;;;6.23;2.77;;;;;;;14.76;100.00;97357.59;5070356;27;102087;-64
2022/10/27 09:05:08;;;;;;;5.30;2.63;;;;;;;14.84;100.00;97364.38;5087274;27;105317;-64
2022/10/27 09:07:41;;;;;;;3.63;2.70;;;;;;;14.82;100.00;97356.59;5069781;27;105648;-65
2022/10/27 09:10:19;;;;;;;3.30;2.47;;;;;;;14.77;100.00;97358.44;5050869;27;103565;-64
2022/10/27 09:13:06;;;;;;;5.43;2.53;;;;;;;14.83;100.00;97358.19;5061240;27;104936;-65
2022/10/27 09:15:39;;;;;;;3.13;2.30;;;;;;;15.00;100.00;97350.84;5054996;27;106845;-64
2022/10/27 09:18:13;;;;;;;4.47;3.20;;;;;;;15.18;100.00;97350.50;5070467;27;102236;-64
2022/10/27 09:20:44;;;;;;;4.23;2.50;;;;;;;15.45;100.00;97348.59;5070079;27;102609;-64
2022/10/27 09:23:15;;;;;;;4.53;2.63;;;;;;;15.67;100.00;97337.72;5073012;27;101712;-64
2022/10/27 09:25:46;;;;;;;5.73;2.70;;;;;;;15.97;100.00;97340.59;5070109;27;105244;-64
2022/10/27 09:28:27;;;;;;;3.97;2.80;;;;;;;16.16;100.00;97336.38;5069665;27;105567;-64
2022/10/27 09:30:54;;;;;;;6.87;2.83;;;;;;;16.39;100.00;97341.31;5069527;27;102327;-64
2022/10/27 09:33:28;;;;;;;4.03;2.40;;;;;;;16.56;100.00;97337.34;5070174;27;105255;-65
2022/10/27 09:35:56;;;;;;;4.83;2.63;;;;;;;16.75;100.00;97326.91;5070164;27;102732;-64
2022/10/27 09:38:26;;;;;;;3.50;2.30;;;;;;;16.81;100.00;97333.91;5070007;27;102084;-64
2022/10/27 09:40:54;;;;;;;2.53;2.10;;;;;;;16.89;100.00;97331.50;5066109;27;105224;-64
2022/10/27 09:43:24;;;;;;;3.77;2.30;;;;;;;16.87;100.00;97328.28;5072942;27;104067;-64
2022/10/27 09:45:57;;;;;;;4.47;2.33;;;;;;;17.15;100.00;97330.44;5069203;27;105185;-64
2022/10/27 09:48:27;;;;;;;2.97;2.07;;;;;;;17.38;100.00;97326.41;5069189;27;106751;-62
2022/10/27 09:50:59;;;;;;;3.73;2.00;;;;;;;17.53;100.00;97321.03;5069406;27;101916;-62
2022/10/27 09:53:46;;;;;;;4.27;1.77;;;;;;;17.66;100.00;97331.25;5068744;27;104084;-62
2022/10/27 09:57:01;;;;;;;4.33;1.87;;;;;;;17.80;100.00;97329.59;5069152;27;103899;-64
2022/10/27 09:59:30;;;;;;;4.17;1.83;;;;;;;17.90;100.00;97326.88;5071011;27;102191;-64
2022/10/27 10:01:58;;;;;;;3.73;2.30;;;;;;;17.89;100.00;97315.31;5070928;27;102857;-64
2022/10/27 10:04:29;;;;;;;2.83;1.90;;;;;;;18.25;100.00;97314.09;5059438;27;105662;-64
2022/10/27 10:06:57;;;;;;;2.83;2.00;;;;;;;18.40;100.00;97315.94;5073236;27;102116;-64
2022/10/27 10:09:30;;;;;;;3.67;2.50;;;;;;;18.49;100.00;97322.34;5068563;27;105653;-64
2022/10/27 10:12:29;;;;;;;6.37;2.20;;;;;;;18.42;100.00;97319.16;5055722;27;101960;-64
2022/10/27 10:15:20;;;;;;;5.63;2.17;;;;;;;18.49;100.00;97314.28;5052941;27;105676;-64
2022/10/27 10:17:56;;;;;;;3.97;2.07;;;;;;;18.15;100.00;97308.75;5068504;27;105240;-64
2022/10/27 10:20:36;;;;;;;2.73;2.10;;;;;;;18.55;100.00;97307.78;5069010;27;101849;-64
2022/10/27 10:23:44;;;;;;;4.13;2.20;;;;;;;18.39;100.00;97317.00;5069425;27;105458;-64
2022/10/27 10:26:17;;;;;;;3.00;2.20;;;;;;;18.94;100.00;97313.97;5072064;27;105670;-64
2022/10/27 10:28:45;;;;;;;3.37;2.20;;;;;;;19.20;100.00;97313.53;5072825;27;101990;-64
2022/10/27 10:31:22;;;;;;;2.40;1.80;;;;;;;18.65;100.00;97307.72;5077200;27;102326;-64
2022/10/27 10:33:48;;;;;;;4.60;1.80;;;;;;;18.62;100.00;97302.88;5072414;27;102065;-64
2022/10/27 10:36:19;;;;;;;2.83;1.87;;;;;;;19.11;100.00;97303.59;5072348;27;105146;-64
2022/10/27 10:38:51;;;;;;;3.20;1.70;;;;;;;19.36;100.00;97303.44;5073433;27;103197;-64
2022/10/27 10:41:31;;;;;;;3.40;1.60;;;;;;;19.24;100.00;97301.09;5068908;27;102149;-64
2022/10/27 10:44:09;;;;;;;4.40;1.80;;;;;;;18.61;100.00;97295.88;5072651;27;103576;-64
2022/10/27 10:46:40;;;;;;;2.53;1.80;;;;;;;19.06;100.00;97292.84;5051640;27;104251;-64
2022/10/27 10:49:18;;;;;;;2.83;1.83;;;;;;;19.46;100.00;97296.03;5070405;27;102098;-64
2022/10/27 10:52:01;;;;;;;2.97;1.87;;;;;;;19.69;100.00;97289.06;5066262;27;105589;-64
2022/10/27 10:54:34;;;;;;;2.60;1.70;;;;;;;19.29;100.00;97292.97;5074409;27;104137;-64
2022/10/27 10:57:03;;;;;;;3.83;2.27;;;;;;;19.61;100.00;97292.41;5052090;27;103825;-64
2022/10/27 10:59:32;;;;;;;2.30;2.00;;;;;;;19.74;100.00;97281.75;5053876;27;105035;-64
2022/10/27 11:02:35;;;;;;;3.10;2.10;;;;;;;19.97;100.00;97280.94;5072248;27;101985;-64
2022/10/27 11:05:12;;;;;;;5.27;2.23;;;;;;;20.61;100.00;97278.47;5072270;27;105314;-64
2022/10/27 11:07:40;;;;;;;2.67;1.93;;;;;;;20.73;100.00;97269.94;5073032;27;102743;-64
2022/10/27 11:10:13;;;;;;;3.60;2.23;;;;;;;20.77;100.00;97263.63;5072183;27;101932;-63
2022/10/27 11:12:56;;;;;;;5.20;2.30;;;;;;;20.73;100.00;97267.22;5072025;27;103694;-63
2022/10/27 11:15:28;;;;;;;4.33;1.77;;;;;;;20.17;100.00;97263.69;5071359;27;105359;-63
2022/10/27 11:18:01;;;;;;;4.23;1.90;;;;;;;20.04;100.00;97256.25;5075662;27;102074;-63
2022/10/27 11:20:31;;;;;;;4.60;2.13;;;;;;;19.24;100.00;97265.25;5070904;27;104397;-63
2022/10/27 11:23:00;;;;;;;6.90;2.33;;;;;;;18.92;100.00;97262.25;5071930;27;102178;-61
2022/10/27 11:25:42;;;;;;;4.00;1.70;;;;;;;19.65;100.00;97266.44;5071778;27;103567;-61
2022/10/27 11:28:16;;;;;;;2.60;1.90;;;;;;;19.62;100.00;97269.72;5071529;27;105711;-61
2022/10/27 11:30:50;;;;;;;5.63;2.03;;;;;;;19.39;100.00;97270.47;5071563;27;101841;-61
2022/10/27 11:33:26;;;;;;;2.73;1.80;;;;;;;19.50;100.00;97266.63;5073031;27;102112;-62
2022/10/27 11:35:59;;;;;;;3.67;1.77;;;;;;;19.77;100.00;97266.84;5066327;27;106250;-61
2022/10/27 11:38:34;;;;;;;4.90;1.80;;;;;;;20.47;100.00;97260.56;5076487;27;101864;-62
2022/10/27 11:41:07;;;;;;;3.00;1.70;;;;;;;20.87;100.00;97254.59;5071304;27;104350;-62
2022/10/27 11:43:39;;;;;;;2.33;1.97;;;;;;;20.21;100.00;97259.34;5070782;27;102014;-61
2022/10/27 11:46:13;;;;;;;4.00;1.90;;;;;;;20.21;100.00;97262.03;5071373;27;104760;-61
2022/10/27 11:48:48;;;;;;;2.60;1.70;;;;;;;20.29;100.00;97255.97;5070804;27;105471;-62
2022/10/27 11:51:35;;;;;;;2.50;1.77;;;;;;;20.54;100.00;97263.75;5072600;27;101872;-62